sensor_id;sensor_type;location;lat;lon;timestamp;P1;durP1;ratioP1;P2;durP2;ratioP2
3613;SDS011;1821;50.936;6.854;2022-12-07T00:00:41;27.33;;;20.80;;
3613;SDS011;1821;50.936;6.854;2022-12-07T00:01:24;28.38;;;20.27;;
3613;SDS011;1821;50.936;6.854;2022-12-07T00:02:07;24.90;;;19.42;;
3613;SDS011;1821;50.936;6.854;2022-12-07T00:02:49;22.85;;;19.90;;
3613;SDS011;1821;50.936;6.854;2022-12-07T00:03:31;23.17;;;19.40;;
3613;SDS011;1821;50.936;6.854;2022-12-07T00:04:15;23.75;;;18.38;;
3613;SDS011;1821;50.936;6.854;2022-12-07T00:04:58;24.05;;;19.15;;
3613;SDS011;1821;50.936;6.854;2022-12-07T00:05:39;23.48;;;19.17;;
3613;SDS011;1821;50.936;6.854;2022-12-07T00:06:21;23.48;;;18.88;;
3613;SDS011;1821;50.936;6.854;2022-12-07T00:07:03;24.48;;;18.98;;
3613;SDS011;1821;50.936;6.854;2022-12-07T00:07:45;21.00;;;17.67;;
3613;SDS011;1821;50.936;6.854;2022-12-07T00:08:27;23.83;;;18.60;;
3613;SDS011;1821;50.936;6.854;2022-12-07T00:09:18;24.42;;;18.85;;
3613;SDS011;1821;50.936;6.854;2022-12-07T00:10:00;26.45;;;20.15;;
3613;SDS011;1821;50.936;6.854;2022-12-07T00:10:44;24.27;;;19.13;;
3613;SDS011;1821;50.936;6.854;2022-12-07T00:11:26;22.02;;;19.23;;
3613;SDS011;1821;50.936;6.854;2022-12-07T00:12:08;22.65;;;19.40;;
3613;SDS011;1821;50.936;6.854;2022-12-07T00:12:50;24.25;;;20.55;;
3613;SDS011;1821;50.936;6.854;2022-12-07T00:13:34;24.45;;;19.33;;
3613;SDS011;1821;50.936;6.854;2022-12-07T00:14:17;24.75;;;19.75;;
3613;SDS011;1821;50.936;6.854;2022-12-07T00:14:59;23.10;;;19.63;;
3613;SDS011;1821;50.936;6.854;2022-12-07T00:15:41;22.80;;;20.10;;
3613;SDS011;1821;50.936;6.854;2022-12-07T00:16:25;25.55;;;19.42;;
3613;SDS011;1821;50.936;6.854;2022-12-07T00:17:09;25.38;;;20.67;;
3613;SDS011;1821;50.936;6.854;2022-12-07T00:17:51;24.42;;;20.17;;
3613;SDS011;1821;50.936;6.854;2022-12-07T00:18:33;23.90;;;19.10;;
3613;SDS011;1821;50.936;6.854;2022-12-07T00:19:15;24.90;;;18.65;;
3613;SDS011;1821;50.936;6.854;2022-12-07T00:19:57;23.90;;;19.58;;
3613;SDS011;1821;50.936;6.854;2022-12-07T00:20:39;24.35;;;19.42;;
3613;SDS011;1821;50.936;6.854;2022-12-07T00:21:23;23.45;;;19.02;;
3613;SDS011;1821;50.936;6.854;2022-12-07T00:22:06;25.83;;;18.35;;
3613;SDS011;1821;50.936;6.854;2022-12-07T00:22:48;24.25;;;19.05;;
3613;SDS011;1821;50.936;6.854;2022-12-07T00:23:30;24.05;;;19.65;;
3613;SDS011;1821;50.936;6.854;2022-12-07T00:24:12;23.83;;;20.63;;
3613;SDS011;1821;50.936;6.854;2022-12-07T00:24:54;25.15;;;20.33;;
3613;SDS011;1821;50.936;6.854;2022-12-07T00:25:36;26.05;;;20.80;;
3613;SDS011;1821;50.936;6.854;2022-12-07T00:26:19;28.15;;;21.05;;
3613;SDS011;1821;50.936;6.854;2022-12-07T00:27:02;29.95;;;20.30;;
3613;SDS011;1821;50.936;6.854;2022-12-07T00:27:44;26.40;;;19.80;;
3613;SDS011;1821;50.936;6.854;2022-12-07T00:28:26;26.55;;;20.40;;
3613;SDS011;1821;50.936;6.854;2022-12-07T00:29:28;24.52;;;20.52;;
3613;SDS011;1821;50.936;6.854;2022-12-07T00:30:09;25.60;;;19.58;;
3613;SDS011;1821;50.936;6.854;2022-12-07T00:30:59;25.70;;;19.33;;
3613;SDS011;1821;50.936;6.854;2022-12-07T00:31:43;22.90;;;18.95;;
3613;SDS011;1821;50.936;6.854;2022-12-07T00:32:25;24.75;;;19.80;;
3613;SDS011;1821;50.936;6.854;2022-12-07T00:33:07;23.95;;;19.92;;
3613;SDS011;1821;50.936;6.854;2022-12-07T00:33:49;25.23;;;21.17;;
3613;SDS011;1821;50.936;6.854;2022-12-07T00:34:31;24.30;;;20.92;;
3613;SDS011;1821;50.936;6.854;2022-12-07T00:35:13;23.95;;;20.20;;
3613;SDS011;1821;50.936;6.854;2022-12-07T00:35:58;27.90;;;20.00;;
3613;SDS011;1821;50.936;6.854;2022-12-07T00:36:40;28.02;;;21.45;;
3613;SDS011;1821;50.936;6.854;2022-12-07T00:37:22;25.67;;;21.52;;
3613;SDS011;1821;50.936;6.854;2022-12-07T00:38:04;24.42;;;20.55;;
3613;SDS011;1821;50.936;6.854;2022-12-07T00:38:45;27.38;;;20.48;;
3613;SDS011;1821;50.936;6.854;2022-12-07T00:39:27;24.55;;;20.13;;
3613;SDS011;1821;50.936;6.854;2022-12-07T00:40:09;23.73;;;19.33;;
3613;SDS011;1821;50.936;6.854;2022-12-07T00:40:56;22.60;;;19.15;;
3613;SDS011;1821;50.936;6.854;2022-12-07T00:41:45;23.85;;;21.25;;
3613;SDS011;1821;50.936;6.854;2022-12-07T00:42:27;22.38;;;19.40;;
3613;SDS011;1821;50.936;6.854;2022-12-07T00:43:09;22.17;;;19.77;;
3613;SDS011;1821;50.936;6.854;2022-12-07T00:43:51;25.23;;;19.98;;
3613;SDS011;1821;50.936;6.854;2022-12-07T00:44:33;25.45;;;20.80;;
3613;SDS011;1821;50.936;6.854;2022-12-07T00:45:15;23.02;;;20.33;;
3613;SDS011;1821;50.936;6.854;2022-12-07T00:45:56;23.95;;;20.85;;
3613;SDS011;1821;50.936;6.854;2022-12-07T00:46:40;25.38;;;20.08;;
3613;SDS011;1821;50.936;6.854;2022-12-07T00:47:22;26.70;;;20.83;;
3613;SDS011;1821;50.936;6.854;2022-12-07T00:48:04;24.13;;;20.52;;
3613;SDS011;1821;50.936;6.854;2022-12-07T00:48:46;22.13;;;19.20;;
3613;SDS011;1821;50.936;6.854;2022-12-07T00:49:28;23.05;;;19.63;;
3613;SDS011;1821;50.936;6.854;2022-12-07T00:50:10;24.10;;;20.50;;
3613;SDS011;1821;50.936;6.854;2022-12-07T00:50:55;24.77;;;19.42;;
3613;SDS011;1821;50.936;6.854;2022-12-07T00:51:37;28.52;;;20.13;;
3613;SDS011;1821;50.936;6.854;2022-12-07T00:52:18;26.25;;;20.08;;
3613;SDS011;1821;50.936;6.854;2022-12-07T00:53:00;26.45;;;21.30;;
3613;SDS011;1821;50.936;6.854;2022-12-07T00:53:42;23.85;;;19.73;;
3613;SDS011;1821;50.936;6.854;2022-12-07T00:54:24;21.75;;;18.33;;
3613;SDS011;1821;50.936;6.854;2022-12-07T00:55:08;22.60;;;19.48;;
3613;SDS011;1821;50.936;6.854;2022-12-07T00:55:50;24.60;;;20.40;;
3613;SDS011;1821;50.936;6.854;2022-12-07T00:56:33;23.92;;;20.27;;
3613;SDS011;1821;50.936;6.854;2022-12-07T00:57:15;23.48;;;19.30;;
3613;SDS011;1821;50.936;6.854;2022-12-07T00:57:56;25.45;;;20.30;;
3613;SDS011;1821;50.936;6.854;2022-12-07T00:58:40;24.38;;;20.05;;
3613;SDS011;1821;50.936;6.854;2022-12-07T00:59:22;24.92;;;20.58;;
3613;SDS011;1821;50.936;6.854;2022-12-07T01:00:03;24.52;;;20.02;;
3613;SDS011;1821;50.936;6.854;2022-12-07T01:00:46;22.38;;;19.30;;
3613;SDS011;1821;50.936;6.854;2022-12-07T01:01:29;22.05;;;19.75;;
3613;SDS011;1821;50.936;6.854;2022-12-07T01:02:12;22.25;;;19.77;;
3613;SDS011;1821;50.936;6.854;2022-12-07T01:02:57;24.67;;;19.75;;
3613;SDS011;1821;50.936;6.854;2022-12-07T01:03:40;26.60;;;20.20;;
3613;SDS011;1821;50.936;6.854;2022-12-07T01:04:22;22.80;;;20.40;;
3613;SDS011;1821;50.936;6.854;2022-12-07T01:05:04;22.80;;;20.30;;
3613;SDS011;1821;50.936;6.854;2022-12-07T01:05:49;27.00;;;21.35;;
3613;SDS011;1821;50.936;6.854;2022-12-07T01:06:32;24.60;;;20.10;;
3613;SDS011;1821;50.936;6.854;2022-12-07T01:07:14;27.35;;;20.92;;
3613;SDS011;1821;50.936;6.854;2022-12-07T01:07:56;25.00;;;20.00;;
3613;SDS011;1821;50.936;6.854;2022-12-07T01:08:38;23.98;;;20.63;;
3613;SDS011;1821;50.936;6.854;2022-12-07T01:09:20;26.17;;;21.33;;
3613;SDS011;1821;50.936;6.854;2022-12-07T01:10:01;24.98;;;20.60;;
3613;SDS011;1821;50.936;6.854;2022-12-07T01:10:44;23.88;;;19.55;;
3613;SDS011;1821;50.936;6.854;2022-12-07T01:11:27;23.45;;;20.10;;
3613;SDS011;1821;50.936;6.854;2022-12-07T01:12:12;24.80;;;20.70;;
3613;SDS011;1821;50.936;6.854;2022-12-07T01:12:54;24.95;;;21.58;;
3613;SDS011;1821;50.936;6.854;2022-12-07T01:13:35;25.85;;;21.08;;
3613;SDS011;1821;50.936;6.854;2022-12-07T01:14:17;24.70;;;20.60;;
3613;SDS011;1821;50.936;6.854;2022-12-07T01:14:59;23.13;;;20.13;;
3613;SDS011;1821;50.936;6.854;2022-12-07T01:15:44;26.67;;;20.77;;
3613;SDS011;1821;50.936;6.854;2022-12-07T01:16:28;24.83;;;19.73;;
3613;SDS011;1821;50.936;6.854;2022-12-07T01:17:11;25.35;;;19.73;;
3613;SDS011;1821;50.936;6.854;2022-12-07T01:17:53;29.25;;;21.02;;
3613;SDS011;1821;50.936;6.854;2022-12-07T01:18:35;26.65;;;20.60;;
3613;SDS011;1821;50.936;6.854;2022-12-07T01:19:18;25.80;;;20.20;;
3613;SDS011;1821;50.936;6.854;2022-12-07T01:20:00;28.05;;;20.77;;
3613;SDS011;1821;50.936;6.854;2022-12-07T01:20:42;26.17;;;21.35;;
3613;SDS011;1821;50.936;6.854;2022-12-07T01:21:25;25.40;;;21.00;;
3613;SDS011;1821;50.936;6.854;2022-12-07T01:22:08;25.52;;;21.20;;
3613;SDS011;1821;50.936;6.854;2022-12-07T01:22:50;24.23;;;21.63;;
3613;SDS011;1821;50.936;6.854;2022-12-07T01:23:32;28.98;;;21.88;;
3613;SDS011;1821;50.936;6.854;2022-12-07T01:24:15;27.38;;;20.98;;
3613;SDS011;1821;50.936;6.854;2022-12-07T01:24:56;27.80;;;21.27;;
3613;SDS011;1821;50.936;6.854;2022-12-07T01:25:38;28.52;;;21.80;;
3613;SDS011;1821;50.936;6.854;2022-12-07T01:26:21;29.88;;;21.92;;
3613;SDS011;1821;50.936;6.854;2022-12-07T01:27:05;28.70;;;21.77;;
3613;SDS011;1821;50.936;6.854;2022-12-07T01:27:46;28.33;;;22.33;;
3613;SDS011;1821;50.936;6.854;2022-12-07T01:28:30;26.73;;;21.77;;
3613;SDS011;1821;50.936;6.854;2022-12-07T01:29:12;26.70;;;21.95;;
3613;SDS011;1821;50.936;6.854;2022-12-07T01:29:54;25.75;;;21.02;;
3613;SDS011;1821;50.936;6.854;2022-12-07T01:30:35;26.35;;;22.20;;
3613;SDS011;1821;50.936;6.854;2022-12-07T01:31:21;25.02;;;20.88;;
3613;SDS011;1821;50.936;6.854;2022-12-07T01:32:05;23.13;;;19.95;;
3613;SDS011;1821;50.936;6.854;2022-12-07T01:32:46;30.95;;;21.90;;
3613;SDS011;1821;50.936;6.854;2022-12-07T01:33:29;27.70;;;21.98;;
3613;SDS011;1821;50.936;6.854;2022-12-07T01:34:13;26.98;;;21.42;;
3613;SDS011;1821;50.936;6.854;2022-12-07T01:35:00;27.20;;;22.02;;
3613;SDS011;1821;50.936;6.854;2022-12-07T01:35:42;25.20;;;21.90;;
3613;SDS011;1821;50.936;6.854;2022-12-07T01:36:24;24.15;;;21.55;;
3613;SDS011;1821;50.936;6.854;2022-12-07T01:37:07;25.50;;;21.70;;
3613;SDS011;1821;50.936;6.854;2022-12-07T01:37:48;25.92;;;22.48;;
3613;SDS011;1821;50.936;6.854;2022-12-07T01:38:30;27.33;;;22.48;;
3613;SDS011;1821;50.936;6.854;2022-12-07T01:39:13;26.13;;;21.15;;
3613;SDS011;1821;50.936;6.854;2022-12-07T01:39:55;26.75;;;21.52;;
3613;SDS011;1821;50.936;6.854;2022-12-07T01:40:37;27.02;;;22.58;;
3613;SDS011;1821;50.936;6.854;2022-12-07T01:41:19;25.02;;;21.67;;
3613;SDS011;1821;50.936;6.854;2022-12-07T01:42:01;24.13;;;20.70;;
3613;SDS011;1821;50.936;6.854;2022-12-07T01:42:43;25.05;;;20.83;;
3613;SDS011;1821;50.936;6.854;2022-12-07T01:43:25;26.23;;;22.25;;
3613;SDS011;1821;50.936;6.854;2022-12-07T01:46:17;26.00;;;21.58;;
3613;SDS011;1821;50.936;6.854;2022-12-07T01:47:00;28.40;;;22.73;;
3613;SDS011;1821;50.936;6.854;2022-12-07T01:48:01;26.55;;;21.98;;
3613;SDS011;1821;50.936;6.854;2022-12-07T01:48:43;29.42;;;22.25;;
3613;SDS011;1821;50.936;6.854;2022-12-07T01:49:43;26.08;;;21.73;;
3613;SDS011;1821;50.936;6.854;2022-12-07T01:50:27;25.30;;;20.48;;
3613;SDS011;1821;50.936;6.854;2022-12-07T01:51:12;25.92;;;20.30;;
3613;SDS011;1821;50.936;6.854;2022-12-07T01:52:38;25.65;;;21.80;;
3613;SDS011;1821;50.936;6.854;2022-12-07T01:53:05;23.42;;;20.92;;
3613;SDS011;1821;50.936;6.854;2022-12-07T01:53:50;27.95;;;21.38;;
3613;SDS011;1821;50.936;6.854;2022-12-07T01:54:32;27.00;;;22.23;;
3613;SDS011;1821;50.936;6.854;2022-12-07T01:55:15;26.55;;;22.27;;
3613;SDS011;1821;50.936;6.854;2022-12-07T01:55:58;26.40;;;21.50;;
3613;SDS011;1821;50.936;6.854;2022-12-07T01:56:41;25.63;;;21.63;;
3613;SDS011;1821;50.936;6.854;2022-12-07T01:57:28;27.20;;;21.27;;
3613;SDS011;1821;50.936;6.854;2022-12-07T01:58:12;24.90;;;21.10;;
3613;SDS011;1821;50.936;6.854;2022-12-07T01:58:54;24.17;;;21.58;;
3613;SDS011;1821;50.936;6.854;2022-12-07T01:59:38;23.35;;;20.48;;
3613;SDS011;1821;50.936;6.854;2022-12-07T02:00:20;24.73;;;21.20;;
3613;SDS011;1821;50.936;6.854;2022-12-07T02:01:05;25.13;;;20.83;;
3613;SDS011;1821;50.936;6.854;2022-12-07T02:01:47;23.20;;;20.65;;
3613;SDS011;1821;50.936;6.854;2022-12-07T02:02:33;24.02;;;19.95;;
3613;SDS011;1821;50.936;6.854;2022-12-07T02:03:39;25.37;;;20.77;;
3613;SDS011;1821;50.936;6.854;2022-12-07T02:04:21;23.30;;;20.02;;
3613;SDS011;1821;50.936;6.854;2022-12-07T02:05:05;27.15;;;20.00;;
3613;SDS011;1821;50.936;6.854;2022-12-07T02:05:49;24.15;;;20.33;;
3613;SDS011;1821;50.936;6.854;2022-12-07T02:06:32;23.58;;;20.60;;
3613;SDS011;1821;50.936;6.854;2022-12-07T02:07:16;23.27;;;20.77;;
3613;SDS011;1821;50.936;6.854;2022-12-07T02:07:58;23.17;;;20.67;;
3613;SDS011;1821;50.936;6.854;2022-12-07T02:08:40;24.52;;;21.38;;
3613;SDS011;1821;50.936;6.854;2022-12-07T02:09:23;25.30;;;20.17;;
3613;SDS011;1821;50.936;6.854;2022-12-07T02:10:11;24.50;;;19.95;;
3613;SDS011;1821;50.936;6.854;2022-12-07T02:10:54;26.00;;;20.42;;
3613;SDS011;1821;50.936;6.854;2022-12-07T02:11:39;25.27;;;20.27;;
3613;SDS011;1821;50.936;6.854;2022-12-07T02:12:22;24.75;;;21.42;;
3613;SDS011;1821;50.936;6.854;2022-12-07T02:13:10;27.65;;;21.77;;
3613;SDS011;1821;50.936;6.854;2022-12-07T02:13:55;26.35;;;21.33;;
3613;SDS011;1821;50.936;6.854;2022-12-07T02:14:38;25.50;;;21.05;;
3613;SDS011;1821;50.936;6.854;2022-12-07T02:15:20;24.42;;;20.70;;
3613;SDS011;1821;50.936;6.854;2022-12-07T02:17:45;28.10;;;21.40;;
3613;SDS011;1821;50.936;6.854;2022-12-07T02:20:30;23.80;;;20.50;;
3613;SDS011;1821;50.936;6.854;2022-12-07T02:25:30;25.65;;;20.70;;
3613;SDS011;1821;50.936;6.854;2022-12-07T02:30:02;25.27;;;21.88;;
3613;SDS011;1821;50.936;6.854;2022-12-07T02:30:49;27.73;;;20.85;;
3613;SDS011;1821;50.936;6.854;2022-12-07T02:31:32;25.35;;;22.10;;
3613;SDS011;1821;50.936;6.854;2022-12-07T02:33:25;26.02;;;20.92;;
3613;SDS011;1821;50.936;6.854;2022-12-07T02:36:04;27.65;;;21.17;;
3613;SDS011;1821;50.936;6.854;2022-12-07T02:36:55;27.60;;;21.92;;
3613;SDS011;1821;50.936;6.854;2022-12-07T02:37:57;30.10;;;22.15;;
3613;SDS011;1821;50.936;6.854;2022-12-07T02:38:56;26.40;;;21.20;;
3613;SDS011;1821;50.936;6.854;2022-12-07T02:39:44;29.05;;;22.10;;
3613;SDS011;1821;50.936;6.854;2022-12-07T02:40:33;25.75;;;21.30;;
3613;SDS011;1821;50.936;6.854;2022-12-07T02:41:36;25.63;;;21.58;;
3613;SDS011;1821;50.936;6.854;2022-12-07T02:42:32;26.08;;;22.63;;
3613;SDS011;1821;50.936;6.854;2022-12-07T02:43:32;26.88;;;21.55;;
3613;SDS011;1821;50.936;6.854;2022-12-07T02:44:20;25.77;;;20.92;;
3613;SDS011;1821;50.936;6.854;2022-12-07T02:45:05;26.98;;;22.45;;
3613;SDS011;1821;50.936;6.854;2022-12-07T02:45:50;25.90;;;23.13;;
3613;SDS011;1821;50.936;6.854;2022-12-07T02:46:42;26.13;;;21.48;;
3613;SDS011;1821;50.936;6.854;2022-12-07T02:47:27;27.42;;;22.58;;
3613;SDS011;1821;50.936;6.854;2022-12-07T02:48:11;26.92;;;22.00;;
3613;SDS011;1821;50.936;6.854;2022-12-07T02:48:55;29.00;;;22.58;;
3613;SDS011;1821;50.936;6.854;2022-12-07T02:49:40;28.85;;;22.95;;
3613;SDS011;1821;50.936;6.854;2022-12-07T02:50:22;28.17;;;22.20;;
3613;SDS011;1821;50.936;6.854;2022-12-07T02:51:04;26.95;;;22.30;;
3613;SDS011;1821;50.936;6.854;2022-12-07T02:51:46;29.17;;;23.13;;
3613;SDS011;1821;50.936;6.854;2022-12-07T02:52:28;30.17;;;23.50;;
3613;SDS011;1821;50.936;6.854;2022-12-07T02:54:24;27.52;;;22.60;;
3613;SDS011;1821;50.936;6.854;2022-12-07T02:55:06;25.33;;;21.63;;
3613;SDS011;1821;50.936;6.854;2022-12-07T02:55:49;26.10;;;22.15;;
3613;SDS011;1821;50.936;6.854;2022-12-07T02:56:35;28.83;;;24.10;;
3613;SDS011;1821;50.936;6.854;2022-12-07T02:57:42;29.02;;;23.15;;
3613;SDS011;1821;50.936;6.854;2022-12-07T02:58:38;29.23;;;23.90;;
3613;SDS011;1821;50.936;6.854;2022-12-07T02:59:49;30.90;;;22.98;;
3613;SDS011;1821;50.936;6.854;2022-12-07T03:03:09;29.95;;;22.05;;
3613;SDS011;1821;50.936;6.854;2022-12-07T03:03:58;29.63;;;22.77;;
3613;SDS011;1821;50.936;6.854;2022-12-07T03:06:28;29.42;;;23.98;;
3613;SDS011;1821;50.936;6.854;2022-12-07T03:07:45;27.98;;;22.63;;
3613;SDS011;1821;50.936;6.854;2022-12-07T03:08:30;28.23;;;23.30;;
3613;SDS011;1821;50.936;6.854;2022-12-07T03:09:20;30.88;;;23.45;;
3613;SDS011;1821;50.936;6.854;2022-12-07T03:10:27;28.30;;;22.77;;
3613;SDS011;1821;50.936;6.854;2022-12-07T03:11:47;28.25;;;21.52;;
3613;SDS011;1821;50.936;6.854;2022-12-07T03:12:37;25.42;;;21.35;;
3613;SDS011;1821;50.936;6.854;2022-12-07T03:13:32;27.90;;;22.27;;
3613;SDS011;1821;50.936;6.854;2022-12-07T03:14:24;26.13;;;21.10;;
3613;SDS011;1821;50.936;6.854;2022-12-07T03:15:20;26.67;;;22.40;;
3613;SDS011;1821;50.936;6.854;2022-12-07T03:17:05;29.40;;;22.02;;
3613;SDS011;1821;50.936;6.854;2022-12-07T03:17:55;25.83;;;21.98;;
3613;SDS011;1821;50.936;6.854;2022-12-07T03:18:47;28.83;;;22.98;;
3613;SDS011;1821;50.936;6.854;2022-12-07T03:19:54;26.83;;;22.38;;
3613;SDS011;1821;50.936;6.854;2022-12-07T03:20:40;28.20;;;21.83;;
3613;SDS011;1821;50.936;6.854;2022-12-07T03:21:26;29.35;;;22.98;;
3613;SDS011;1821;50.936;6.854;2022-12-07T03:22:13;32.20;;;23.15;;
3613;SDS011;1821;50.936;6.854;2022-12-07T03:22:56;29.60;;;23.45;;
3613;SDS011;1821;50.936;6.854;2022-12-07T03:23:41;28.73;;;22.75;;
3613;SDS011;1821;50.936;6.854;2022-12-07T03:24:29;27.23;;;22.65;;
3613;SDS011;1821;50.936;6.854;2022-12-07T03:25:26;28.92;;;23.77;;
3613;SDS011;1821;50.936;6.854;2022-12-07T03:26:09;30.67;;;24.20;;
3613;SDS011;1821;50.936;6.854;2022-12-07T03:26:55;28.15;;;23.02;;
3613;SDS011;1821;50.936;6.854;2022-12-07T03:27:54;27.83;;;22.70;;
3613;SDS011;1821;50.936;6.854;2022-12-07T03:28:42;29.63;;;23.17;;
3613;SDS011;1821;50.936;6.854;2022-12-07T03:29:33;29.98;;;24.55;;
3613;SDS011;1821;50.936;6.854;2022-12-07T03:30:19;29.60;;;22.52;;
3613;SDS011;1821;50.936;6.854;2022-12-07T03:32:08;28.90;;;23.33;;
3613;SDS011;1821;50.936;6.854;2022-12-07T03:33:07;26.67;;;23.05;;
3613;SDS011;1821;50.936;6.854;2022-12-07T03:33:59;27.90;;;21.10;;
3613;SDS011;1821;50.936;6.854;2022-12-07T03:34:47;27.00;;;22.60;;
3613;SDS011;1821;50.936;6.854;2022-12-07T03:35:38;27.08;;;22.65;;
3613;SDS011;1821;50.936;6.854;2022-12-07T03:36:25;30.00;;;23.75;;
3613;SDS011;1821;50.936;6.854;2022-12-07T03:37:23;27.25;;;22.27;;
3613;SDS011;1821;50.936;6.854;2022-12-07T03:38:17;27.65;;;22.20;;
3613;SDS011;1821;50.936;6.854;2022-12-07T03:41:09;29.00;;;22.40;;
3613;SDS011;1821;50.936;6.854;2022-12-07T03:41:52;26.17;;;20.60;;
3613;SDS011;1821;50.936;6.854;2022-12-07T03:42:37;25.92;;;20.80;;
3613;SDS011;1821;50.936;6.854;2022-12-07T03:43:19;25.27;;;21.60;;
3613;SDS011;1821;50.936;6.854;2022-12-07T03:44:02;28.90;;;23.67;;
3613;SDS011;1821;50.936;6.854;2022-12-07T03:44:44;29.52;;;23.38;;
3613;SDS011;1821;50.936;6.854;2022-12-07T03:45:37;26.52;;;21.98;;
3613;SDS011;1821;50.936;6.854;2022-12-07T03:50:13;28.58;;;22.67;;
3613;SDS011;1821;50.936;6.854;2022-12-07T03:52:11;25.10;;;21.80;;
3613;SDS011;1821;50.936;6.854;2022-12-07T03:53:11;26.20;;;21.35;;
3613;SDS011;1821;50.936;6.854;2022-12-07T03:55:02;27.35;;;22.33;;
3613;SDS011;1821;50.936;6.854;2022-12-07T03:55:52;29.20;;;22.73;;
3613;SDS011;1821;50.936;6.854;2022-12-07T03:56:35;30.33;;;22.33;;
3613;SDS011;1821;50.936;6.854;2022-12-07T03:57:18;30.45;;;23.38;;
3613;SDS011;1821;50.936;6.854;2022-12-07T03:58:04;27.88;;;23.75;;
3613;SDS011;1821;50.936;6.854;2022-12-07T03:58:50;32.80;;;23.23;;
3613;SDS011;1821;50.936;6.854;2022-12-07T03:59:33;29.30;;;23.00;;
3613;SDS011;1821;50.936;6.854;2022-12-07T04:00:15;25.30;;;22.45;;
3613;SDS011;1821;50.936;6.854;2022-12-07T04:00:57;26.35;;;21.77;;
3613;SDS011;1821;50.936;6.854;2022-12-07T04:01:41;28.13;;;23.13;;
3613;SDS011;1821;50.936;6.854;2022-12-07T04:02:25;28.58;;;22.67;;
3613;SDS011;1821;50.936;6.854;2022-12-07T04:03:09;29.97;;;23.43;;
3613;SDS011;1821;50.936;6.854;2022-12-07T04:03:51;29.88;;;22.83;;
3613;SDS011;1821;50.936;6.854;2022-12-07T04:04:33;27.88;;;23.13;;
3613;SDS011;1821;50.936;6.854;2022-12-07T04:05:15;28.27;;;23.00;;
3613;SDS011;1821;50.936;6.854;2022-12-07T04:06:00;29.40;;;24.02;;
3613;SDS011;1821;50.936;6.854;2022-12-07T04:06:42;26.50;;;21.45;;
3613;SDS011;1821;50.936;6.854;2022-12-07T04:07:23;25.77;;;22.33;;
3613;SDS011;1821;50.936;6.854;2022-12-07T04:08:06;27.75;;;23.60;;
3613;SDS011;1821;50.936;6.854;2022-12-07T04:08:48;28.58;;;24.58;;
3613;SDS011;1821;50.936;6.854;2022-12-07T04:09:29;29.30;;;23.23;;
3613;SDS011;1821;50.936;6.854;2022-12-07T04:10:13;30.10;;;24.77;;
3613;SDS011;1821;50.936;6.854;2022-12-07T04:10:55;27.08;;;23.50;;
3613;SDS011;1821;50.936;6.854;2022-12-07T04:11:37;26.38;;;22.35;;
3613;SDS011;1821;50.936;6.854;2022-12-07T04:12:19;26.30;;;22.65;;
3613;SDS011;1821;50.936;6.854;2022-12-07T04:13:00;29.70;;;22.55;;
3613;SDS011;1821;50.936;6.854;2022-12-07T04:13:42;28.02;;;22.73;;
3613;SDS011;1821;50.936;6.854;2022-12-07T04:14:43;30.60;;;22.65;;
3613;SDS011;1821;50.936;6.854;2022-12-07T04:15:24;27.85;;;23.17;;
3613;SDS011;1821;50.936;6.854;2022-12-07T04:16:06;27.48;;;23.38;;
3613;SDS011;1821;50.936;6.854;2022-12-07T04:16:49;31.45;;;24.38;;
3613;SDS011;1821;50.936;6.854;2022-12-07T04:17:35;28.63;;;22.98;;
3613;SDS011;1821;50.936;6.854;2022-12-07T04:18:17;30.95;;;23.67;;
3613;SDS011;1821;50.936;6.854;2022-12-07T04:18:59;28.27;;;22.95;;
3613;SDS011;1821;50.936;6.854;2022-12-07T04:19:41;27.20;;;22.85;;
3613;SDS011;1821;50.936;6.854;2022-12-07T04:20:23;26.42;;;22.73;;
3613;SDS011;1821;50.936;6.854;2022-12-07T04:21:07;26.63;;;22.27;;
3613;SDS011;1821;50.936;6.854;2022-12-07T04:21:49;29.48;;;22.70;;
3613;SDS011;1821;50.936;6.854;2022-12-07T04:22:31;27.25;;;23.17;;
3613;SDS011;1821;50.936;6.854;2022-12-07T04:23:13;28.20;;;22.70;;
3613;SDS011;1821;50.936;6.854;2022-12-07T04:23:55;29.65;;;23.50;;
3613;SDS011;1821;50.936;6.854;2022-12-07T04:24:36;31.95;;;23.75;;
3613;SDS011;1821;50.936;6.854;2022-12-07T04:25:18;28.50;;;22.00;;
3613;SDS011;1821;50.936;6.854;2022-12-07T04:26:00;31.20;;;23.52;;
3613;SDS011;1821;50.936;6.854;2022-12-07T04:26:42;29.08;;;22.48;;
3613;SDS011;1821;50.936;6.854;2022-12-07T04:27:25;28.98;;;23.17;;
3613;SDS011;1821;50.936;6.854;2022-12-07T04:28:09;29.08;;;22.30;;
3613;SDS011;1821;50.936;6.854;2022-12-07T04:28:51;29.92;;;22.02;;
3613;SDS011;1821;50.936;6.854;2022-12-07T04:29:35;28.75;;;23.52;;
3613;SDS011;1821;50.936;6.854;2022-12-07T04:30:17;26.92;;;22.98;;
3613;SDS011;1821;50.936;6.854;2022-12-07T04:31:02;26.42;;;21.73;;
3613;SDS011;1821;50.936;6.854;2022-12-07T04:31:44;27.97;;;21.50;;
3613;SDS011;1821;50.936;6.854;2022-12-07T04:32:28;27.33;;;22.55;;
3613;SDS011;1821;50.936;6.854;2022-12-07T04:33:10;28.52;;;22.00;;
3613;SDS011;1821;50.936;6.854;2022-12-07T04:33:52;26.10;;;22.38;;
3613;SDS011;1821;50.936;6.854;2022-12-07T04:34:33;25.98;;;21.55;;
3613;SDS011;1821;50.936;6.854;2022-12-07T04:35:15;28.00;;;23.30;;
3613;SDS011;1821;50.936;6.854;2022-12-07T04:35:57;31.88;;;24.25;;
3613;SDS011;1821;50.936;6.854;2022-12-07T04:36:39;29.15;;;23.33;;
3613;SDS011;1821;50.936;6.854;2022-12-07T04:37:22;30.67;;;24.23;;
3613;SDS011;1821;50.936;6.854;2022-12-07T04:38:04;29.35;;;23.52;;
3613;SDS011;1821;50.936;6.854;2022-12-07T04:38:49;30.00;;;24.35;;
3613;SDS011;1821;50.936;6.854;2022-12-07T04:39:33;28.88;;;23.15;;
3613;SDS011;1821;50.936;6.854;2022-12-07T04:40:15;29.25;;;23.52;;
3613;SDS011;1821;50.936;6.854;2022-12-07T04:40:57;27.45;;;21.92;;
3613;SDS011;1821;50.936;6.854;2022-12-07T04:41:38;31.13;;;22.63;;
3613;SDS011;1821;50.936;6.854;2022-12-07T04:42:20;28.98;;;23.50;;
3613;SDS011;1821;50.936;6.854;2022-12-07T04:43:02;30.95;;;24.13;;
3613;SDS011;1821;50.936;6.854;2022-12-07T04:43:45;29.00;;;23.52;;
3613;SDS011;1821;50.936;6.854;2022-12-07T04:44:28;29.30;;;24.02;;
3613;SDS011;1821;50.936;6.854;2022-12-07T04:45:10;28.30;;;24.20;;
3613;SDS011;1821;50.936;6.854;2022-12-07T04:45:51;28.33;;;24.00;;
3613;SDS011;1821;50.936;6.854;2022-12-07T04:46:33;32.03;;;23.98;;
3613;SDS011;1821;50.936;6.854;2022-12-07T04:47:15;31.88;;;24.23;;
3613;SDS011;1821;50.936;6.854;2022-12-07T04:47:57;33.97;;;24.45;;
3613;SDS011;1821;50.936;6.854;2022-12-07T04:48:41;29.08;;;24.90;;
3613;SDS011;1821;50.936;6.854;2022-12-07T04:49:23;30.05;;;23.73;;
3613;SDS011;1821;50.936;6.854;2022-12-07T04:50:05;29.70;;;23.08;;
3613;SDS011;1821;50.936;6.854;2022-12-07T04:50:48;27.85;;;23.23;;
3613;SDS011;1821;50.936;6.854;2022-12-07T04:51:33;26.98;;;23.15;;
3613;SDS011;1821;50.936;6.854;2022-12-07T04:52:15;27.60;;;23.83;;
3613;SDS011;1821;50.936;6.854;2022-12-07T04:52:56;29.55;;;24.05;;
3613;SDS011;1821;50.936;6.854;2022-12-07T04:53:41;31.83;;;23.90;;
3613;SDS011;1821;50.936;6.854;2022-12-07T04:54:23;28.98;;;23.92;;
3613;SDS011;1821;50.936;6.854;2022-12-07T04:55:04;28.80;;;23.77;;
3613;SDS011;1821;50.936;6.854;2022-12-07T04:55:46;28.23;;;22.30;;
3613;SDS011;1821;50.936;6.854;2022-12-07T04:56:28;26.80;;;22.33;;
3613;SDS011;1821;50.936;6.854;2022-12-07T04:57:10;26.67;;;22.65;;
3613;SDS011;1821;50.936;6.854;2022-12-07T04:57:51;27.38;;;23.08;;
3613;SDS011;1821;50.936;6.854;2022-12-07T04:58:33;29.00;;;23.60;;
3613;SDS011;1821;50.936;6.854;2022-12-07T04:59:15;33.35;;;23.42;;
3613;SDS011;1821;50.936;6.854;2022-12-07T04:59:57;31.58;;;23.88;;
3613;SDS011;1821;50.936;6.854;2022-12-07T05:00:39;28.48;;;23.17;;
3613;SDS011;1821;50.936;6.854;2022-12-07T05:01:21;29.65;;;22.90;;
3613;SDS011;1821;50.936;6.854;2022-12-07T05:02:04;24.88;;;21.40;;
3613;SDS011;1821;50.936;6.854;2022-12-07T05:02:46;26.08;;;21.42;;